Time;durP1;ratioP1;P1;durP2;ratioP2;P2;SDS_P1;SDS_P2;PMS_P1;PMS_P2;Temp;Humidity;BMP_temperature;BMP_pressure;BME280_temperature;BME280_humidity;BME280_pressure;Samples;Min_cycle;Max_cycle;Signal;HPM_P1;HPM_P2
2024/01/13 00:00:52;;;;;;;896.50;823.83;;;1.70;99.90;;;;;;5052305;28;20830;-65
2024/01/13 00:03:19;;;;;;;897.87;824.57;;;1.70;99.90;;;;;;5052253;28;20857;-64
2024/01/13 00:05:47;;;;;;;898.03;824.57;;;1.70;99.90;;;;;;5052121;28;20449;-65
2024/01/13 00:08:14;;;;;;;895.87;821.30;;;1.70;99.90;;;;;;5052160;28;20451;-65
2024/01/13 00:10:40;;;;;;;879.07;806.70;;;1.70;99.90;;;;;;5051841;28;20829;-65
2024/01/13 00:13:08;;;;;;;886.63;813.97;;;1.70;99.90;;;;;;5052089;28;20848;-65
2024/01/13 00:15:35;;;;;;;890.40;817.13;;;1.70;99.90;;;;;;5052046;28;20510;-65
2024/01/13 00:18:01;;;;;;;890.60;818.93;;;1.70;99.90;;;;;;5051747;28;20980;-65
2024/01/13 00:20:28;;;;;;;887.37;816.47;;;1.70;99.90;;;;;;5051776;28;20965;-65
2024/01/13 00:22:56;;;;;;;894.97;823.37;;;1.70;99.90;;;;;;5051927;28;20852;-64
2024/01/13 00:25:23;;;;;;;896.80;826.50;;;1.70;99.90;;;;;;5051826;28;20458;-64
2024/01/13 00:27:50;;;;;;;883.13;812.00;;;1.70;99.90;;;;;;5060250;28;20549;-65
2024/01/13 00:30:16;;;;;;;884.37;813.77;;;1.70;99.90;;;;;;5051709;28;20452;-65
2024/01/13 00:32:43;;;;;;;882.57;813.33;;;1.70;99.90;;;;;;5043976;28;20475;-65
2024/01/13 00:35:11;;;;;;;902.07;830.37;;;1.70;99.90;;;;;;5052359;28;20451;-65
2024/01/13 00:37:37;;;;;;;902.47;831.63;;;1.70;99.90;;;;;;5051519;28;20459;-66
2024/01/13 00:40:07;;;;;;;899.70;829.60;;;1.70;99.90;;;;;;5051573;28;20484;-64
2024/01/13 00:42:34;;;;;;;899.87;831.10;;;1.70;99.90;;;;;;5051838;28;20478;-65
2024/01/13 00:45:01;;;;;;;884.90;816.07;;;1.70;99.90;;;;;;5051928;28;20458;-66
2024/01/13 00:47:28;;;;;;;887.40;818.90;;;1.70;99.90;;;;;;5051621;28;20454;-66
2024/01/13 00:49:54;;;;;;;888.83;820.33;;;1.70;99.90;;;;;;5051592;28;20445;-65
2024/01/13 00:52:21;;;;;;;881.00;813.47;;;1.70;99.90;;;;;;5051497;28;20474;-66
2024/01/13 00:54:48;;;;;;;887.40;818.00;;;1.70;99.90;;;;;;5051681;28;20459;-66
2024/01/13 00:57:16;;;;;;;884.07;816.87;;;1.70;99.90;;;;;;5051681;28;20455;-64
2024/01/13 00:59:43;;;;;;;876.30;810.07;;;1.70;99.90;;;;;;5043369;28;20838;-65
2024/01/13 01:02:09;;;;;;;871.33;805.73;;;1.70;99.90;;;;;;5054583;28;20986;-65
2024/01/13 01:04:36;;;;;;;875.47;809.57;;;1.70;99.90;;;;;;5055620;28;20538;-65
2024/01/13 01:07:03;;;;;;;873.40;806.60;;;1.70;99.90;;;;;;5055112;28;20543;-65
2024/01/13 01:09:30;;;;;;;868.33;802.20;;;1.70;99.90;;;;;;5055382;28;20448;-66
2024/01/13 01:11:57;;;;;;;869.20;804.40;;;1.70;99.90;;;;;;5055517;28;20471;-66
2024/01/13 01:14:25;;;;;;;876.30;809.73;;;1.70;99.90;;;;;;5063271;28;20458;-65
2024/01/13 01:16:51;;;;;;;891.43;825.63;;;1.70;99.90;;;;;;5055129;28;20448;-64
2024/01/13 01:19:18;;;;;;;890.33;825.87;;;1.70;99.90;;;;;;5055133;28;20480;-65
2024/01/13 01:21:45;;;;;;;888.03;825.20;;;1.70;99.90;;;;;;5055320;28;20491;-65
2024/01/13 01:24:12;;;;;;;885.93;822.73;;;1.70;99.90;;;;;;5055256;28;20619;-65
2024/01/13 01:26:39;;;;;;;896.50;832.63;;;1.70;99.90;;;;;;5055180;28;20456;-65
2024/01/13 01:29:06;;;;;;;869.83;806.47;;;1.70;99.90;;;;;;5055160;28;20542;-64
2024/01/13 01:31:34;;;;;;;868.90;804.73;;;1.70;99.90;;;;;;5054826;28;20946;-65
2024/01/13 01:34:01;;;;;;;873.37;809.07;;;1.70;99.90;;;;;;5054976;28;20990;-66
2024/01/13 01:36:28;;;;;;;874.80;811.53;;;1.70;99.90;;;;;;5054795;28;20957;-66
2024/01/13 01:38:55;;;;;;;870.07;807.77;;;1.70;99.90;;;;;;5054885;28;20483;-65
2024/01/13 01:41:22;;;;;;;871.53;808.23;;;1.70;99.90;;;;;;5055053;28;20459;-66
2024/01/13 01:43:49;;;;;;;871.77;807.67;;;1.70;99.90;;;;;;5054713;28;20553;-66
2024/01/13 01:46:17;;;;;;;867.13;804.17;;;1.70;99.90;;;;;;5054795;28;20950;-65
2024/01/13 01:48:47;;;;;;;868.80;806.10;;;1.70;99.90;;;;;;5046368;28;20444;-66
2024/01/13 01:51:15;;;;;;;868.50;806.23;;;1.70;99.90;;;;;;5054412;28;20950;-65
2024/01/13 01:53:42;;;;;;;862.33;800.93;;;1.70;99.90;;;;;;5054421;28;20479;-65
2024/01/13 01:56:14;;;;;;;868.80;807.50;;;1.70;99.90;;;;;;5054765;28;20943;-65
2024/01/13 01:58:42;;;;;;;865.80;803.63;;;1.80;99.90;;;;;;5054393;28;20455;-65
2024/01/13 02:01:09;;;;;;;882.50;821.33;;;1.80;99.90;;;;;;5054280;28;20969;-66
2024/01/13 02:03:37;;;;;;;873.97;813.07;;;1.80;99.90;;;;;;5054479;28;20470;-65
2024/01/13 02:06:09;;;;;;;870.03;808.43;;;1.70;99.90;;;;;;5054431;28;20828;-65
2024/01/13 02:08:37;;;;;;;873.47;812.87;;;1.80;99.90;;;;;;5054153;28;20447;-65
2024/01/13 02:11:04;;;;;;;871.07;811.57;;;1.80;99.90;;;;;;5054205;28;20459;-66
2024/01/13 02:13:31;;;;;;;865.23;804.10;;;1.80;99.90;;;;;;5052983;28;20467;-65
2024/01/13 02:15:57;;;;;;;870.17;808.93;;;1.80;99.90;;;;;;5054553;28;20450;-66
2024/01/13 02:18:24;;;;;;;858.60;798.27;;;1.80;99.90;;;;;;5054101;28;20458;-64
2024/01/13 02:20:51;;;;;;;866.63;805.53;;;1.80;99.90;;;;;;5054118;28;20497;-65
2024/01/13 02:23:19;;;;;;;868.87;808.43;;;1.90;99.90;;;;;;5054063;28;20474;-65
2024/01/13 02:25:46;;;;;;;861.57;801.97;;;1.80;99.90;;;;;;5054033;28;20452;-66
2024/01/13 02:28:13;;;;;;;868.67;808.90;;;1.80;99.90;;;;;;5053674;28;20451;-65
2024/01/13 02:30:40;;;;;;;866.83;807.50;;;1.80;99.90;;;;;;5053942;28;20448;-66
2024/01/13 02:33:06;;;;;;;861.47;802.27;;;1.80;99.90;;;;;;5054042;28;20473;-66
2024/01/13 02:35:33;;;;;;;867.60;808.47;;;1.80;99.90;;;;;;5053752;28;20458;-64
2024/01/13 02:38:00;;;;;;;869.07;810.37;;;1.80;99.90;;;;;;5053691;28;20447;-65
2024/01/13 02:40:28;;;;;;;870.37;811.37;;;1.80;99.90;;;;;;5053578;28;20486;-65
2024/01/13 02:42:55;;;;;;;874.00;814.67;;;1.80;99.90;;;;;;5053395;28;20562;-66
2024/01/13 02:45:22;;;;;;;878.33;819.73;;;1.80;99.90;;;;;;5053578;28;20455;-64
2024/01/13 02:47:56;;;;;;;877.50;819.40;;;1.80;99.90;;;;;;5053492;28;20947;-65
2024/01/13 02:50:23;;;;;;;877.97;820.03;;;1.80;99.90;;;;;;5053661;28;20818;-66
2024/01/13 02:52:51;;;;;;;872.57;815.37;;;1.90;99.90;;;;;;5053848;28;20486;-65
2024/01/13 02:55:18;;;;;;;860.97;803.97;;;1.90;99.90;;;;;;5052723;28;20462;-64
2024/01/13 02:57:46;;;;;;;859.80;803.97;;;1.90;99.90;;;;;;5061230;28;20853;-65
2024/01/13 03:00:14;;;;;;;858.67;802.30;;;1.90;99.90;;;;;;5061531;28;20867;-65
2024/01/13 03:02:41;;;;;;;856.93;801.80;;;1.90;99.90;;;;;;5053263;28;20483;-65
2024/01/13 03:05:09;;;;;;;856.40;802.17;;;1.90;99.90;;;;;;5053368;28;20463;-65
2024/01/13 03:07:35;;;;;;;854.87;800.20;;;1.90;99.90;;;;;;5052873;28;20454;-65
2024/01/13 03:10:03;;;;;;;850.43;796.80;;;1.90;99.90;;;;;;5052916;28;20452;-65
2024/01/13 03:12:29;;;;;;;859.07;804.50;;;1.90;99.90;;;;;;5053207;28;20538;-65
2024/01/13 03:14:58;;;;;;;857.47;803.87;;;1.90;99.90;;;;;;5053086;28;20455;-65
2024/01/13 03:17:25;;;;;;;860.20;807.50;;;2.00;99.90;;;;;;5052828;28;20471;-65
2024/01/13 03:19:52;;;;;;;858.33;805.33;;;2.00;99.90;;;;;;5052795;28;20474;-65
2024/01/13 03:22:18;;;;;;;859.53;806.17;;;1.90;99.90;;;;;;5052619;28;20474;-66
2024/01/13 03:24:45;;;;;;;858.00;803.90;;;1.90;99.90;;;;;;5052587;28;20455;-65
2024/01/13 03:27:12;;;;;;;856.57;803.97;;;1.90;99.90;;;;;;5052675;28;20452;-65
2024/01/13 03:29:38;;;;;;;864.80;812.10;;;1.90;99.90;;;;;;5052689;28;20443;-66
2024/01/13 03:32:07;;;;;;;865.80;813.50;;;1.90;99.90;;;;;;5052736;28;20471;-65
2024/01/13 03:34:34;;;;;;;870.03;816.77;;;1.90;99.90;;;;;;5052636;28;20458;-65
2024/01/13 03:37:00;;;;;;;857.07;805.40;;;1.90;99.90;;;;;;5052323;28;20452;-65
2024/01/13 03:39:27;;;;;;;851.20;798.43;;;1.90;99.90;;;;;;5052491;28;20476;-65
2024/01/13 03:41:54;;;;;;;853.47;801.47;;;1.90;99.90;;;;;;5052787;28;20464;-65
2024/01/13 03:44:21;;;;;;;851.80;798.97;;;1.90;99.90;;;;;;5052569;28;20827;-65
2024/01/13 03:46:47;;;;;;;848.27;796.30;;;1.90;99.90;;;;;;5052415;28;20447;-65
2024/01/13 03:49:15;;;;;;;851.87;798.10;;;1.90;99.90;;;;;;5052258;28;20503;-65
2024/01/13 03:51:42;;;;;;;855.23;802.80;;;1.90;99.90;;;;;;5052416;28;20445;-66
2024/01/13 03:54:09;;;;;;;853.93;801.57;;;1.90;99.90;;;;;;5052444;28;20454;-66
2024/01/13 03:56:36;;;;;;;853.93;802.17;;;1.90;99.90;;;;;;5052267;28;20452;-65
2024/01/13 03:59:04;;;;;;;854.57;802.47;;;1.90;99.90;;;;;;5052297;28;20451;-66
2024/01/13 04:01:31;;;;;;;853.57;801.63;;;1.90;99.90;;;;;;5052303;28;20455;-65
2024/01/13 04:03:57;;;;;;;853.70;801.70;;;1.90;99.90;;;;;;5052045;28;20482;-65
2024/01/13 04:06:25;;;;;;;851.77;800.53;;;1.90;99.90;;;;;;5051814;28;20454;-64
2024/01/13 04:08:52;;;;;;;850.60;800.80;;;1.90;99.90;;;;;;5052430;28;20831;-65
2024/01/13 04:11:19;;;;;;;852.33;802.77;;;1.90;99.90;;;;;;5052081;28;20984;-65
2024/01/13 04:13:46;;;;;;;840.57;792.33;;;2.00;99.90;;;;;;5052186;28;20862;-64
2024/01/13 04:16:13;;;;;;;831.47;783.37;;;2.10;99.90;;;;;;5051923;28;20451;-66
2024/01/13 04:18:39;;;;;;;812.73;766.63;;;2.10;99.90;;;;;;5051680;28;20453;-66
2024/01/13 04:21:06;;;;;;;795.90;750.97;;;2.10;99.90;;;;;;5052119;28;20480;-65
2024/01/13 04:23:35;;;;;;;781.27;738.33;;;2.10;99.90;;;;;;5052247;28;20479;-65
2024/01/13 04:26:02;;;;;;;778.03;735.90;;;2.20;99.90;;;;;;5051911;28;20976;-66
2024/01/13 04:28:29;;;;;;;778.20;735.63;;;2.10;99.90;;;;;;5051776;28;20931;-65
2024/01/13 04:30:55;;;;;;;778.93;736.43;;;2.10;99.90;;;;;;5051745;28;20939;-65
2024/01/13 04:33:22;;;;;;;767.47;726.83;;;2.10;99.90;;;;;;5051609;28;20482;-66
2024/01/13 04:35:49;;;;;;;764.40;724.23;;;2.20;99.90;;;;;;5053030;28;20447;-65
2024/01/13 04:38:16;;;;;;;752.83;715.03;;;2.10;99.90;;;;;;5056025;28;20452;-66
2024/01/13 04:40:47;;;;;;;739.43;702.33;;;2.20;99.90;;;;;;5047498;28;21058;-66
2024/01/13 04:43:13;;;;;;;718.33;683.00;;;2.20;99.90;;;;;;5056007;28;20471;-65
2024/01/13 04:45:40;;;;;;;707.07;673.10;;;2.20;99.90;;;;;;5055771;28;21005;-65
2024/01/13 04:48:08;;;;;;;706.30;672.67;;;2.20;99.90;;;;;;5055827;28;20451;-65
2024/01/13 04:50:34;;;;;;;714.80;680.90;;;2.20;99.90;;;;;;5055756;28;20447;-65
2024/01/13 04:53:01;;;;;;;709.97;676.80;;;2.20;99.90;;;;;;5055843;28;20486;-65
2024/01/13 04:55:28;;;;;;;709.90;676.07;;;2.20;99.90;;;;;;5055774;28;20483;-65
2024/01/13 04:57:56;;;;;;;710.70;676.70;;;2.20;99.90;;;;;;5055516;28;20456;-65
2024/01/13 05:00:23;;;;;;;729.20;693.60;;;2.10;99.90;;;;;;5055265;28;20478;-65
2024/01/13 05:02:49;;;;;;;724.03;688.17;;;2.10;99.90;;;;;;5055599;28;20467;-65
2024/01/13 05:05:16;;;;;;;731.10;694.60;;;2.20;99.90;;;;;;5055702;28;20453;-66
2024/01/13 05:07:43;;;;;;;735.53;698.87;;;2.10;99.90;;;;;;5050452;28;20477;-65
2024/01/13 05:10:10;;;;;;;735.40;698.50;;;2.10;99.90;;;;;;5059897;28;20443;-66
2024/01/13 05:12:37;;;;;;;759.27;719.97;;;2.10;99.90;;;;;;5055191;28;20480;-64
2024/01/13 05:15:07;;;;;;;748.63;710.13;;;2.10;99.90;;;;;;5055140;28;20457;-66
2024/01/13 05:17:34;;;;;;;750.13;711.67;;;2.10;99.90;;;;;;5055209;28;20482;-66
2024/01/13 05:20:01;;;;;;;765.57;725.30;;;2.00;99.90;;;;;;5055151;28;20479;-65
2024/01/13 05:22:28;;;;;;;764.23;723.27;;;2.00;99.90;;;;;;5055023;28;20478;-66
2024/01/13 05:24:54;;;;;;;763.47;723.60;;;2.10;99.90;;;;;;5055234;28;20455;-66
2024/01/13 05:27:21;;;;;;;763.23;723.33;;;2.10;99.90;;;;;;5055421;28;20453;-69
2024/01/13 05:29:48;;;;;;;742.57;704.77;;;2.00;99.90;;;;;;5055237;28;20457;-66
2024/01/13 05:32:16;;;;;;;768.83;728.07;;;2.00;99.90;;;;;;5055054;28;21019;-66
2024/01/13 05:34:43;;;;;;;765.10;725.03;;;2.00;99.90;;;;;;5055017;28;20454;-66
2024/01/13 05:37:10;;;;;;;772.87;732.83;;;2.00;99.90;;;;;;5054818;28;20447;-65
2024/01/13 05:39:36;;;;;;;782.03;739.53;;;2.00;99.90;;;;;;5054747;28;20451;-66
2024/01/13 05:42:03;;;;;;;779.07;735.77;;;2.00;99.90;;;;;;5054570;28;20478;-65
2024/01/13 05:44:30;;;;;;;777.17;734.73;;;2.00;99.90;;;;;;5055021;28;20456;-65
2024/01/13 05:46:57;;;;;;;780.80;737.90;;;2.00;99.90;;;;;;5054567;28;20455;-66
2024/01/13 05:49:25;;;;;;;784.60;741.90;;;2.00;99.90;;;;;;5054691;28;20447;-65
2024/01/13 05:51:52;;;;;;;779.10;736.80;;;2.00;99.90;;;;;;5054647;28;20454;-66
2024/01/13 05:54:19;;;;;;;765.43;722.10;;;2.00;99.90;;;;;;5054378;28;20456;-66
2024/01/13 05:56:45;;;;;;;759.20;718.60;;;2.00;99.90;;;;;;5054733;28;20818;-66
2024/01/13 05:59:12;;;;;;;756.03;715.50;;;2.10;99.90;;;;;;5054727;28;20452;-66
2024/01/13 06:01:39;;;;;;;764.20;723.40;;;2.00;99.90;;;;;;5054354;28;20845;-65
2024/01/13 06:04:06;;;;;;;764.43;724.20;;;2.10;99.90;;;;;;5054552;28;20463;-65
2024/01/13 06:06:35;;;;;;;752.97;712.60;;;2.10;99.90;;;;;;5054357;28;20458;-65
2024/01/13 06:09:01;;;;;;;743.27;704.33;;;2.10;99.90;;;;;;5054160;28;20452;-66
2024/01/13 06:11:28;;;;;;;736.70;697.83;;;2.10;99.90;;;;;;5054333;28;20447;-66
2024/01/13 06:13:56;;;;;;;733.60;695.57;;;2.10;99.90;;;;;;5054274;28;20472;-66
2024/01/13 06:16:23;;;;;;;730.93;693.33;;;2.10;99.90;;;;;;5054200;28;20444;-66
2024/01/13 06:18:49;;;;;;;730.13;693.13;;;2.10;99.90;;;;;;5054323;28;20939;-67
2024/01/13 06:21:16;;;;;;;733.27;696.27;;;2.10;99.90;;;;;;5053972;28;20864;-66
2024/01/13 06:23:45;;;;;;;728.47;692.37;;;2.10;99.90;;;;;;5045656;28;20471;-66
2024/01/13 06:26:12;;;;;;;724.33;689.00;;;2.10;99.90;;;;;;5053924;28;20483;-66
2024/01/13 06:28:39;;;;;;;721.70;686.00;;;2.10;99.90;;;;;;5053744;28;20465;-66
2024/01/13 06:31:06;;;;;;;712.43;678.23;;;2.10;99.90;;;;;;5053999;28;20455;-66
2024/01/13 06:33:32;;;;;;;706.40;672.87;;;2.10;99.90;;;;;;5053802;28;20468;-66
2024/01/13 06:35:59;;;;;;;695.27;662.27;;;2.20;99.90;;;;;;5053737;28;20475;-66
2024/01/13 06:38:26;;;;;;;680.63;647.97;;;2.10;99.90;;;;;;5053653;28;20450;-66
2024/01/13 06:40:54;;;;;;;654.93;624.93;;;2.20;99.90;;;;;;5053594;28;20490;-66
2024/01/13 06:43:21;;;;;;;633.97;604.67;;;2.30;99.90;;;;;;5053598;28;20469;-67
2024/01/13 06:45:47;;;;;;;611.43;584.00;;;2.30;99.90;;;;;;5053613;28;20451;-65
2024/01/13 06:48:14;;;;;;;600.77;573.63;;;2.40;99.90;;;;;;5053931;28;20919;-70
2024/01/13 06:50:41;;;;;;;581.90;556.00;;;2.40;99.90;;;;;;5053638;28;20460;-67
2024/01/13 06:53:08;;;;;;;559.97;536.13;;;2.40;99.90;;;;;;5053355;28;20474;-66
2024/01/13 06:55:35;;;;;;;552.67;528.47;;;2.40;99.90;;;;;;5053269;28;20836;-66
2024/01/13 06:58:04;;;;;;;527.67;505.13;;;2.40;99.90;;;;;;5052146;28;20458;-67
2024/01/13 07:00:30;;;;;;;502.30;481.10;;;2.40;99.90;;;;;;5052793;28;20567;-67
2024/01/13 07:02:57;;;;;;;505.30;484.60;;;2.40;99.90;;;;;;5053623;28;20476;-66
2024/01/13 07:05:24;;;;;;;474.53;454.80;;;2.40;99.90;;;;;;5053845;28;20453;-66
2024/01/13 07:07:51;;;;;;;471.30;452.13;;;2.40;99.90;;;;;;5060608;28;20829;-67
2024/01/13 07:10:17;;;;;;;466.77;448.20;;;2.40;99.90;;;;;;5069195;28;20462;-67
2024/01/13 07:12:47;;;;;;;464.47;445.97;;;2.30;99.90;;;;;;5044948;28;20731;-67
2024/01/13 07:15:15;;;;;;;483.50;463.70;;;2.30;99.90;;;;;;5053696;28;20519;-67
2024/01/13 07:17:42;;;;;;;494.00;473.80;;;2.30;99.90;;;;;;5053166;28;20449;-67
2024/01/13 07:20:10;;;;;;;502.00;481.20;;;2.20;99.90;;;;;;5053177;28;20472;-66
2024/01/13 07:22:36;;;;;;;520.13;498.50;;;2.20;99.90;;;;;;5053165;28;20482;-67
2024/01/13 07:25:04;;;;;;;543.43;519.97;;;2.20;99.90;;;;;;5052925;28;20445;-67
2024/01/13 07:27:31;;;;;;;555.13;531.13;;;2.20;99.90;;;;;;5054297;28;20457;-67
2024/01/13 07:29:59;;;;;;;566.90;543.00;;;2.20;99.90;;;;;;5058918;28;20453;-66
2024/01/13 07:32:27;;;;;;;565.80;541.50;;;2.20;99.90;;;;;;5053119;28;20463;-67
2024/01/13 07:34:54;;;;;;;577.63;552.83;;;2.20;99.90;;;;;;5057667;28;20969;-67
2024/01/13 07:37:21;;;;;;;562.07;536.93;;;2.20;99.90;;;;;;5055997;28;20568;-66
2024/01/13 07:39:48;;;;;;;582.80;557.37;;;2.30;99.90;;;;;;5053254;28;20448;-67
2024/01/13 07:42:15;;;;;;;595.13;569.40;;;2.30;99.90;;;;;;5052815;28;20483;-67
2024/01/13 07:44:43;;;;;;;596.40;570.43;;;2.20;99.90;;;;;;5052744;28;20794;-67
2024/01/13 07:47:09;;;;;;;584.70;558.60;;;2.20;99.90;;;;;;5052629;28;20464;-68
2024/01/13 07:49:38;;;;;;;599.27;573.17;;;2.30;99.90;;;;;;5052849;28;20568;-66
2024/01/13 07:52:06;;;;;;;606.67;580.13;;;2.20;99.90;;;;;;5052447;28;20473;-66
2024/01/13 07:54:33;;;;;;;604.90;577.70;;;2.30;99.90;;;;;;5052730;28;20452;-66
2024/01/13 07:57:00;;;;;;;575.60;550.07;;;2.30;99.90;;;;;;5052697;28;20500;-66
2024/01/13 07:59:27;;;;;;;563.10;538.60;;;2.30;99.90;;;;;;5052472;28;20531;-66
2024/01/13 08:01:54;;;;;;;534.13;511.63;;;2.30;99.90;;;;;;5052329;28;20508;-66
2024/01/13 08:04:21;;;;;;;508.27;487.33;;;2.40;99.90;;;;;;5052330;28;20453;-66
2024/01/13 08:06:50;;;;;;;499.93;479.73;;;2.40;99.90;;;;;;5052236;28;20455;-66
2024/01/13 08:09:18;;;;;;;464.10;444.43;;;2.40;99.90;;;;;;5052126;28;20448;-67
2024/01/13 08:11:45;;;;;;;431.10;413.70;;;2.40;99.90;;;;;;5044176;28;20451;-67
2024/01/13 08:14:12;;;;;;;405.40;389.73;;;2.50;99.90;;;;;;5052376;28;20555;-67
2024/01/13 08:16:39;;;;;;;397.93;381.83;;;2.60;99.90;;;;;;5051649;28;20468;-67
2024/01/13 08:19:06;;;;;;;368.70;354.77;;;2.60;99.90;;;;;;5052520;28;20448;-66
2024/01/13 08:21:32;;;;;;;336.87;323.63;;;2.70;99.90;;;;;;5062072;28;20481;-67
2024/01/13 08:24:00;;;;;;;309.40;297.40;;;2.70;99.90;;;;;;5071724;28;20453;-67
2024/01/13 08:26:30;;;;;;;287.80;276.00;;;2.70;99.90;;;;;;5070069;28;20461;-67
2024/01/13 08:28:57;;;;;;;236.27;226.47;;;2.80;99.90;;;;;;5051641;28;20559;-67
2024/01/13 08:31:24;;;;;;;189.63;180.93;;;2.80;99.90;;;;;;5051384;28;20453;-67
2024/01/13 08:33:50;;;;;;;160.93;153.60;;;2.80;99.90;;;;;;5051177;28;20472;-67
2024/01/13 08:36:18;;;;;;;144.90;137.30;;;2.80;99.90;;;;;;5051242;28;20855;-67
2024/01/13 08:38:45;;;;;;;147.47;140.17;;;2.80;99.90;;;;;;5042921;28;20453;-67
2024/01/13 08:41:13;;;;;;;136.63;129.53;;;2.90;99.90;;;;;;5050354;28;20473;-67
2024/01/13 08:43:41;;;;;;;136.27;129.47;;;2.90;99.90;;;;;;5050993;28;20473;-67
2024/01/13 08:46:09;;;;;;;126.20;119.60;;;2.90;99.90;;;;;;5051186;28;20820;-67
2024/01/13 08:48:36;;;;;;;125.07;118.67;;;2.90;99.90;;;;;;5050738;28;21003;-66
2024/01/13 08:51:03;;;;;;;123.13;117.10;;;2.90;99.90;;;;;;5050863;28;20447;-71
2024/01/13 08:53:30;;;;;;;111.00;105.20;;;2.80;99.90;;;;;;5051367;28;20484;-67
2024/01/13 08:55:57;;;;;;;109.27;103.50;;;2.90;99.90;;;;;;5052021;28;20451;-67
2024/01/13 08:58:25;;;;;;;108.13;102.10;;;2.90;99.90;;;;;;5051683;28;20448;-67
2024/01/13 09:00:54;;;;;;;95.47;90.03;;;2.90;99.90;;;;;;5051374;28;20822;-69
2024/01/13 09:03:21;;;;;;;93.23;88.10;;;2.90;99.90;;;;;;5050847;28;20502;-67
2024/01/13 09:05:48;;;;;;;82.40;77.30;;;2.90;99.90;;;;;;5051089;28;20448;-67
2024/01/13 09:08:15;;;;;;;87.73;82.90;;;2.90;99.90;;;;;;5050874;28;20840;-67
2024/01/13 09:10:42;;;;;;;79.53;74.53;;;3.00;99.90;;;;;;5051521;28;20451;-67
2024/01/13 09:13:08;;;;;;;78.67;74.43;;;3.00;99.90;;;;;;5051810;28;20548;-66
2024/01/13 09:15:36;;;;;;;78.00;73.10;;;3.00;99.90;;;;;;5051652;28;20452;-66
2024/01/13 09:18:04;;;;;;;76.40;72.50;;;3.00;99.90;;;;;;5051303;28;20455;-67
2024/01/13 09:20:31;;;;;;;79.20;74.60;;;3.00;99.90;;;;;;5051288;28;20490;-67
2024/01/13 09:22:57;;;;;;;76.97;72.70;;;3.00;99.90;;;;;;5053948;28;21006;-67
2024/01/13 09:25:24;;;;;;;79.73;75.03;;;3.00;99.90;;;;;;5055301;28;20490;-67
2024/01/13 09:27:53;;;;;;;72.57;68.03;;;3.00;99.90;;;;;;5055306;28;20452;-67
2024/01/13 09:30:21;;;;;;;80.33;75.90;;;3.10;99.90;;;;;;5054975;28;20455;-67
2024/01/13 09:32:49;;;;;;;84.37;79.77;;;3.10;99.90;;;;;;5054755;28;20466;-67
2024/01/13 09:35:16;;;;;;;83.77;78.77;;;3.10;99.90;;;;;;5054209;28;20444;-67
2024/01/13 09:37:43;;;;;;;87.60;83.13;;;3.10;99.90;;;;;;5053992;28;20939;-68
2024/01/13 09:40:13;;;;;;;83.00;78.70;;;3.20;99.90;;;;;;5063238;28;20949;-67
2024/01/13 09:42:57;;;;;;;82.90;78.47;;;3.20;99.90;;;;;;5054050;28;20486;-67
2024/01/13 09:45:25;;;;;;;89.60;84.97;;;3.20;99.90;;;;;;5054166;28;20454;-67
2024/01/13 09:47:55;;;;;;;82.70;78.50;;;3.20;99.90;;;;;;5054348;28;20445;-67
2024/01/13 09:50:22;;;;;;;88.27;83.60;;;3.20;99.90;;;;;;5053929;28;20449;-66
2024/01/13 09:52:49;;;;;;;86.00;81.40;;;3.30;99.90;;;;;;5054655;28;20485;-67
2024/01/13 09:55:18;;;;;;;88.00;82.80;;;3.30;99.90;;;;;;5053996;28;20449;-67
2024/01/13 09:57:46;;;;;;;85.90;81.67;;;3.30;99.90;;;;;;5048973;28;20960;-67
2024/01/13 10:00:14;;;;;;;78.00;74.20;;;3.40;99.90;;;;;;5054331;28;20448;-66
2024/01/13 10:02:41;;;;;;;79.23;74.87;;;3.50;99.90;;;;;;5053870;28;20484;-66
2024/01/13 10:05:09;;;;;;;73.73;69.23;;;3.50;99.90;;;;;;5054402;28;20450;-66
2024/01/13 10:07:40;;;;;;;69.00;65.20;;;3.50;99.90;;;;;;5053360;28;20446;-66
2024/01/13 10:10:07;;;;;;;60.83;57.40;;;3.60;99.90;;;;;;5053571;28;20446;-67
2024/01/13 10:12:36;;;;;;;49.20;46.30;;;3.60;99.90;;;;;;5053406;28;20471;-67
2024/01/13 10:15:13;;;;;;;44.23;41.60;;;3.60;99.90;;;;;;5053524;28;20473;-67
2024/01/13 10:17:40;;;;;;;42.10;39.17;;;3.60;99.90;;;;;;5053797;28;20450;-66
2024/01/13 10:20:12;;;;;;;39.20;36.80;;;3.60;99.90;;;;;;5053822;28;20461;-67
2024/01/13 10:22:39;;;;;;;37.90;35.60;;;3.60;99.90;;;;;;5054120;28;20485;-66
2024/01/13 10:25:08;;;;;;;41.80;39.10;;;3.60;99.90;;;;;;5053669;28;20950;-67
2024/01/13 10:27:38;;;;;;;38.63;36.30;;;3.50;99.90;;;;;;5053493;28;20454;-67
2024/01/13 10:30:07;;;;;;;44.73;41.87;;;3.50;99.90;;;;;;5053489;28;21020;-67
2024/01/13 10:32:34;;;;;;;50.60;47.60;;;3.50;99.90;;;;;;5054052;28;20461;-65
2024/01/13 10:35:01;;;;;;;52.00;48.90;;;3.50;99.90;;;;;;5054096;28;20861;-67
2024/01/13 10:37:31;;;;;;;48.88;45.88;;;3.60;99.90;;;;;;5052584;28;20970;-67
2024/01/13 10:39:57;;;;;;;49.23;46.33;;;3.60;99.90;;;;;;5053661;28;20202;-67
2024/01/13 10:42:27;;;;;;;45.47;42.77;;;3.60;99.90;;;;;;5053752;28;20487;-66
2024/01/13 10:44:56;;;;;;;46.30;43.60;;;3.60;99.90;;;;;;5053825;28;20454;-67
2024/01/13 10:47:30;;;;;;;52.37;49.27;;;3.50;99.90;;;;;;5053889;28;20499;-67
2024/01/13 10:49:58;;;;;;;55.27;52.27;;;3.40;99.90;;;;;;5052560;28;20450;-67
2024/01/13 10:52:33;;;;;;;58.93;54.97;;;3.40;99.90;;;;;;5052899;28;20470;-66
2024/01/13 10:55:04;;;;;;;67.97;64.17;;;3.40;99.90;;;;;;5053339;28;20451;-66
2024/01/13 10:57:33;;;;;;;68.53;65.00;;;3.40;99.90;;;;;;5053138;28;21007;-67
2024/01/13 11:00:01;;;;;;;75.47;71.37;;;3.30;99.90;;;;;;5052536;28;20824;-67
2024/01/13 11:02:32;;;;;;;87.67;83.27;;;3.30;99.90;;;;;;5052870;28;20485;-67
2024/01/13 11:05:00;;;;;;;101.70;96.83;;;3.30;99.90;;;;;;5052696;28;20533;-66
2024/01/13 11:07:29;;;;;;;121.90;116.50;;;3.20;99.90;;;;;;5052204;28;20479;-68
2024/01/13 11:09:58;;;;;;;164.47;157.77;;;3.20;99.90;;;;;;5051998;28;20538;-67
2024/01/13 11:12:31;;;;;;;134.40;128.70;;;3.20;99.90;;;;;;5053522;28;21000;-67
2024/01/13 11:15:05;;;;;;;142.83;136.37;;;3.20;99.90;;;;;;5053240;28;20965;-66
2024/01/13 11:17:33;;;;;;;151.73;145.60;;;3.20;99.90;;;;;;5053105;28;20447;-66
2024/01/13 11:20:02;;;;;;;157.07;150.37;;;3.20;99.90;;;;;;5053182;28;20455;-67
2024/01/13 11:22:35;;;;;;;165.73;158.93;;;3.20;99.90;;;;;;5053216;28;20491;-67
2024/01/13 11:25:02;;;;;;;162.73;156.33;;;3.20;99.90;;;;;;5052842;28;20444;-67
2024/01/13 11:27:30;;;;;;;181.50;174.43;;;3.10;99.90;;;;;;5053389;28;20950;-67
2024/01/13 11:29:58;;;;;;;201.67;194.27;;;3.10;99.90;;;;;;5052829;28;20455;-67
2024/01/13 11:32:26;;;;;;;210.97;203.03;;;3.10;99.90;;;;;;5052794;28;20558;-67
2024/01/13 11:34:55;;;;;;;245.60;236.30;;;3.10;99.90;;;;;;5052918;28;20512;-66
2024/01/13 11:37:23;;;;;;;290.23;279.63;;;3.10;99.90;;;;;;5052577;28;20549;-66
2024/01/13 11:39:53;;;;;;;278.47;268.37;;;3.10;99.90;;;;;;5052802;28;20840;-67
2024/01/13 11:42:24;;;;;;;286.57;275.83;;;3.10;99.90;;;;;;5052060;28;20888;-66
2024/01/13 11:44:51;;;;;;;292.73;282.17;;;3.10;99.90;;;;;;5052902;28;20459;-67
2024/01/13 11:47:29;;;;;;;283.43;272.93;;;3.10;99.90;;;;;;5052138;28;20443;-66
2024/01/13 11:49:55;;;;;;;307.87;296.37;;;3.00;99.90;;;;;;5052621;28;20478;-66
2024/01/13 11:52:31;;;;;;;314.40;302.70;;;3.00;99.90;;;;;;5052354;28;20467;-66
2024/01/13 11:54:59;;;;;;;311.67;299.87;;;3.00;99.90;;;;;;5052456;28;20469;-67
2024/01/13 11:57:26;;;;;;;309.83;298.57;;;3.00;99.90;;;;;;5052025;28;20450;-66
2024/01/13 11:59:53;;;;;;;308.27;296.70;;;3.00;99.90;;;;;;5052524;28;20443;-67
2024/01/13 12:02:24;;;;;;;309.17;297.50;;;3.00;99.90;;;;;;5052510;28;20479;-67
2024/01/13 12:04:51;;;;;;;309.70;297.97;;;3.00;99.90;;;;;;5051916;28;20454;-66
2024/01/13 12:07:18;;;;;;;317.70;305.87;;;3.00;99.90;;;;;;5050968;28;20966;-67
2024/01/13 12:09:44;;;;;;;307.93;296.60;;;3.00;99.90;;;;;;5043788;28;20451;-66
2024/01/13 12:12:13;;;;;;;302.90;291.47;;;3.00;99.90;;;;;;5051786;28;20467;-70
2024/01/13 12:14:40;;;;;;;299.20;287.77;;;3.00;99.90;;;;;;5052027;28;20447;-67
2024/01/13 12:17:08;;;;;;;316.03;304.20;;;3.00;99.90;;;;;;5052254;28;20459;-66
2024/01/13 12:19:37;;;;;;;306.53;295.33;;;3.00;99.90;;;;;;5052138;28;20447;-67
2024/01/13 12:22:04;;;;;;;307.37;295.87;;;3.00;99.90;;;;;;5051982;28;20483;-67